sensor_id;sensor_type;location;lat;lon;timestamp;P1;durP1;ratioP1;P2;durP2;ratioP2
77495;SDS011;66600;48.378;9.948;2023-08-06T00:00:19;11.18;;;8.70;;
77495;SDS011;66600;48.378;9.948;2023-08-06T00:00:50;12.88;;;9.20;;
77495;SDS011;66600;48.378;9.948;2023-08-06T00:01:20;11.73;;;9.30;;
77495;SDS011;66600;48.378;9.948;2023-08-06T00:01:52;10.23;;;8.50;;
77495;SDS011;66600;48.378;9.948;2023-08-06T00:02:23;12.65;;;8.85;;
77495;SDS011;66600;48.378;9.948;2023-08-06T00:02:53;10.35;;;8.65;;
77495;SDS011;66600;48.378;9.948;2023-08-06T00:03:24;11.77;;;9.05;;
77495;SDS011;66600;48.378;9.948;2023-08-06T00:03:54;12.50;;;8.98;;
77495;SDS011;66600;48.378;9.948;2023-08-06T00:04:25;13.52;;;9.13;;
77495;SDS011;66600;48.378;9.948;2023-08-06T00:04:55;11.82;;;8.45;;
77495;SDS011;66600;48.378;9.948;2023-08-06T00:05:26;13.00;;;8.60;;
77495;SDS011;66600;48.378;9.948;2023-08-06T00:05:56;12.73;;;8.52;;
77495;SDS011;66600;48.378;9.948;2023-08-06T00:06:26;11.15;;;8.43;;
77495;SDS011;66600;48.378;9.948;2023-08-06T00:06:57;14.02;;;8.55;;
77495;SDS011;66600;48.378;9.948;2023-08-06T00:07:27;11.90;;;8.55;;
77495;SDS011;66600;48.378;9.948;2023-08-06T00:07:57;12.45;;;9.05;;
77495;SDS011;66600;48.378;9.948;2023-08-06T00:08:27;11.63;;;8.88;;
77495;SDS011;66600;48.378;9.948;2023-08-06T00:08:58;11.90;;;8.57;;
77495;SDS011;66600;48.378;9.948;2023-08-06T00:09:28;11.57;;;8.15;;
77495;SDS011;66600;48.378;9.948;2023-08-06T00:09:58;11.50;;;8.93;;
77495;SDS011;66600;48.378;9.948;2023-08-06T00:10:29;12.50;;;8.90;;
77495;SDS011;66600;48.378;9.948;2023-08-06T00:10:59;11.90;;;8.60;;
77495;SDS011;66600;48.378;9.948;2023-08-06T00:11:30;12.93;;;9.30;;
77495;SDS011;66600;48.378;9.948;2023-08-06T00:12:00;13.32;;;9.05;;
77495;SDS011;66600;48.378;9.948;2023-08-06T00:12:30;11.73;;;9.35;;
77495;SDS011;66600;48.378;9.948;2023-08-06T00:13:01;11.10;;;8.85;;
77495;SDS011;66600;48.378;9.948;2023-08-06T00:13:31;12.25;;;9.18;;
77495;SDS011;66600;48.378;9.948;2023-08-06T00:14:01;11.20;;;9.00;;
77495;SDS011;66600;48.378;9.948;2023-08-06T00:14:32;12.95;;;8.30;;
77495;SDS011;66600;48.378;9.948;2023-08-06T00:15:02;12.75;;;8.77;;
77495;SDS011;66600;48.378;9.948;2023-08-06T00:15:33;13.38;;;9.15;;
77495;SDS011;66600;48.378;9.948;2023-08-06T00:16:09;12.82;;;9.38;;
77495;SDS011;66600;48.378;9.948;2023-08-06T00:16:44;12.73;;;9.27;;
77495;SDS011;66600;48.378;9.948;2023-08-06T00:17:15;12.35;;;9.43;;
77495;SDS011;66600;48.378;9.948;2023-08-06T00:17:45;12.45;;;9.73;;
77495;SDS011;66600;48.378;9.948;2023-08-06T00:18:15;13.57;;;9.63;;
77495;SDS011;66600;48.378;9.948;2023-08-06T00:18:46;12.10;;;8.98;;
77495;SDS011;66600;48.378;9.948;2023-08-06T00:19:16;14.30;;;10.02;;
77495;SDS011;66600;48.378;9.948;2023-08-06T00:19:46;12.90;;;9.52;;
77495;SDS011;66600;48.378;9.948;2023-08-06T00:20:17;13.18;;;9.63;;
77495;SDS011;66600;48.378;9.948;2023-08-06T00:20:47;13.18;;;9.68;;
77495;SDS011;66600;48.378;9.948;2023-08-06T00:21:18;14.07;;;10.13;;
77495;SDS011;66600;48.378;9.948;2023-08-06T00:21:48;13.20;;;9.50;;
77495;SDS011;66600;48.378;9.948;2023-08-06T00:22:19;13.75;;;9.57;;
77495;SDS011;66600;48.378;9.948;2023-08-06T00:22:49;12.15;;;9.02;;
77495;SDS011;66600;48.378;9.948;2023-08-06T00:23:19;12.30;;;8.68;;
77495;SDS011;66600;48.378;9.948;2023-08-06T00:23:52;13.20;;;9.45;;
77495;SDS011;66600;48.378;9.948;2023-08-06T00:24:22;11.45;;;9.07;;
77495;SDS011;66600;48.378;9.948;2023-08-06T00:24:53;11.27;;;8.82;;
77495;SDS011;66600;48.378;9.948;2023-08-06T00:25:23;11.10;;;9.18;;
77495;SDS011;66600;48.378;9.948;2023-08-06T00:25:53;11.40;;;8.55;;
77495;SDS011;66600;48.378;9.948;2023-08-06T00:26:24;11.95;;;8.88;;
77495;SDS011;66600;48.378;9.948;2023-08-06T00:26:54;13.35;;;8.85;;
77495;SDS011;66600;48.378;9.948;2023-08-06T00:27:25;12.32;;;9.07;;
77495;SDS011;66600;48.378;9.948;2023-08-06T00:27:55;12.23;;;9.02;;
77495;SDS011;66600;48.378;9.948;2023-08-06T00:28:26;12.07;;;9.10;;
77495;SDS011;66600;48.378;9.948;2023-08-06T00:28:56;10.63;;;8.73;;
77495;SDS011;66600;48.378;9.948;2023-08-06T00:29:27;12.95;;;9.15;;
77495;SDS011;66600;48.378;9.948;2023-08-06T00:29:57;14.32;;;9.30;;
77495;SDS011;66600;48.378;9.948;2023-08-06T00:30:28;11.38;;;8.65;;
77495;SDS011;66600;48.378;9.948;2023-08-06T00:30:58;13.45;;;9.23;;
77495;SDS011;66600;48.378;9.948;2023-08-06T00:31:29;11.82;;;9.10;;
77495;SDS011;66600;48.378;9.948;2023-08-06T00:31:59;12.00;;;9.25;;
77495;SDS011;66600;48.378;9.948;2023-08-06T00:32:29;12.77;;;9.73;;
77495;SDS011;66600;48.378;9.948;2023-08-06T00:33:00;12.95;;;9.32;;
77495;SDS011;66600;48.378;9.948;2023-08-06T00:33:30;11.88;;;8.98;;
77495;SDS011;66600;48.378;9.948;2023-08-06T00:34:01;11.55;;;8.45;;
77495;SDS011;66600;48.378;9.948;2023-08-06T00:34:31;11.63;;;9.10;;
77495;SDS011;66600;48.378;9.948;2023-08-06T00:35:01;10.30;;;8.13;;
77495;SDS011;66600;48.378;9.948;2023-08-06T00:35:33;17.63;;;9.13;;
77495;SDS011;66600;48.378;9.948;2023-08-06T00:36:03;11.85;;;8.60;;
77495;SDS011;66600;48.378;9.948;2023-08-06T00:36:33;10.88;;;8.93;;
77495;SDS011;66600;48.378;9.948;2023-08-06T00:37:04;11.27;;;8.82;;
77495;SDS011;66600;48.378;9.948;2023-08-06T00:37:34;13.52;;;8.98;;
77495;SDS011;66600;48.378;9.948;2023-08-06T00:38:05;11.18;;;9.13;;
77495;SDS011;66600;48.378;9.948;2023-08-06T00:38:35;11.27;;;8.63;;
77495;SDS011;66600;48.378;9.948;2023-08-06T00:39:05;12.55;;;9.60;;
77495;SDS011;66600;48.378;9.948;2023-08-06T00:39:37;11.40;;;8.48;;
77495;SDS011;66600;48.378;9.948;2023-08-06T00:40:07;11.25;;;8.38;;
77495;SDS011;66600;48.378;9.948;2023-08-06T00:40:38;10.68;;;8.40;;
77495;SDS011;66600;48.378;9.948;2023-08-06T00:41:09;11.02;;;8.55;;
77495;SDS011;66600;48.378;9.948;2023-08-06T00:41:39;12.52;;;8.63;;
77495;SDS011;66600;48.378;9.948;2023-08-06T00:42:10;12.43;;;8.57;;
77495;SDS011;66600;48.378;9.948;2023-08-06T00:42:40;13.57;;;8.90;;
77495;SDS011;66600;48.378;9.948;2023-08-06T00:43:11;12.00;;;8.38;;
77495;SDS011;66600;48.378;9.948;2023-08-06T00:43:41;12.15;;;8.65;;
77495;SDS011;66600;48.378;9.948;2023-08-06T00:44:12;12.05;;;8.05;;
77495;SDS011;66600;48.378;9.948;2023-08-06T00:44:42;12.07;;;8.10;;
77495;SDS011;66600;48.378;9.948;2023-08-06T00:45:12;9.05;;;7.32;;
77495;SDS011;66600;48.378;9.948;2023-08-06T00:45:43;11.27;;;8.07;;
77495;SDS011;66600;48.378;9.948;2023-08-06T00:46:14;11.00;;;7.78;;
77495;SDS011;66600;48.378;9.948;2023-08-06T00:46:44;10.70;;;8.30;;
77495;SDS011;66600;48.378;9.948;2023-08-06T00:47:15;11.25;;;8.10;;
77495;SDS011;66600;48.378;9.948;2023-08-06T00:47:45;11.10;;;7.80;;
77495;SDS011;66600;48.378;9.948;2023-08-06T00:48:16;10.20;;;7.65;;
77495;SDS011;66600;48.378;9.948;2023-08-06T00:48:47;11.10;;;7.57;;
77495;SDS011;66600;48.378;9.948;2023-08-06T00:49:18;10.25;;;7.97;;
77495;SDS011;66600;48.378;9.948;2023-08-06T00:49:48;9.32;;;7.35;;
77495;SDS011;66600;48.378;9.948;2023-08-06T00:50:19;11.57;;;8.23;;
77495;SDS011;66600;48.378;9.948;2023-08-06T00:50:52;11.27;;;7.90;;
77495;SDS011;66600;48.378;9.948;2023-08-06T00:51:23;9.57;;;8.10;;
77495;SDS011;66600;48.378;9.948;2023-08-06T00:51:54;9.93;;;8.23;;
77495;SDS011;66600;48.378;9.948;2023-08-06T00:52:26;11.13;;;7.68;;
77495;SDS011;66600;48.378;9.948;2023-08-06T00:52:56;11.70;;;7.57;;
77495;SDS011;66600;48.378;9.948;2023-08-06T00:53:27;10.32;;;8.05;;
77495;SDS011;66600;48.378;9.948;2023-08-06T00:53:57;11.00;;;8.13;;
77495;SDS011;66600;48.378;9.948;2023-08-06T00:54:28;12.27;;;8.80;;
77495;SDS011;66600;48.378;9.948;2023-08-06T00:54:59;11.35;;;8.20;;
77495;SDS011;66600;48.378;9.948;2023-08-06T00:55:29;9.82;;;8.00;;
77495;SDS011;66600;48.378;9.948;2023-08-06T00:56:00;10.75;;;8.30;;
77495;SDS011;66600;48.378;9.948;2023-08-06T00:56:31;9.93;;;8.07;;
77495;SDS011;66600;48.378;9.948;2023-08-06T00:57:05;11.40;;;8.38;;
77495;SDS011;66600;48.378;9.948;2023-08-06T00:57:37;11.20;;;8.20;;
77495;SDS011;66600;48.378;9.948;2023-08-06T00:58:08;12.30;;;7.90;;
77495;SDS011;66600;48.378;9.948;2023-08-06T00:58:38;12.88;;;8.88;;
77495;SDS011;66600;48.378;9.948;2023-08-06T00:59:09;10.68;;;8.60;;
77495;SDS011;66600;48.378;9.948;2023-08-06T00:59:41;11.68;;;8.32;;
77495;SDS011;66600;48.378;9.948;2023-08-06T01:00:11;10.02;;;8.18;;
77495;SDS011;66600;48.378;9.948;2023-08-06T01:00:42;10.63;;;8.30;;
77495;SDS011;66600;48.378;9.948;2023-08-06T01:01:12;11.05;;;8.60;;
77495;SDS011;66600;48.378;9.948;2023-08-06T01:01:43;12.75;;;9.15;;
77495;SDS011;66600;48.378;9.948;2023-08-06T01:02:14;10.77;;;8.27;;
77495;SDS011;66600;48.378;9.948;2023-08-06T01:02:45;10.73;;;8.27;;
77495;SDS011;66600;48.378;9.948;2023-08-06T01:03:16;11.05;;;8.52;;
77495;SDS011;66600;48.378;9.948;2023-08-06T01:03:46;12.05;;;8.25;;
77495;SDS011;66600;48.378;9.948;2023-08-06T01:04:16;11.30;;;8.55;;
77495;SDS011;66600;48.378;9.948;2023-08-06T01:04:47;14.82;;;9.18;;
77495;SDS011;66600;48.378;9.948;2023-08-06T01:05:17;12.52;;;8.65;;
77495;SDS011;66600;48.378;9.948;2023-08-06T01:05:48;13.27;;;8.77;;
77495;SDS011;66600;48.378;9.948;2023-08-06T01:06:19;11.40;;;8.90;;
77495;SDS011;66600;48.378;9.948;2023-08-06T01:07:09;13.52;;;8.90;;
77495;SDS011;66600;48.378;9.948;2023-08-06T01:09:06;12.45;;;9.15;;
77495;SDS011;66600;48.378;9.948;2023-08-06T01:10:46;11.07;;;8.73;;
77495;SDS011;66600;48.378;9.948;2023-08-06T01:11:38;11.75;;;8.20;;
77495;SDS011;66600;48.378;9.948;2023-08-06T01:12:25;11.75;;;8.10;;
77495;SDS011;66600;48.378;9.948;2023-08-06T01:13:02;10.35;;;7.97;;
77495;SDS011;66600;48.378;9.948;2023-08-06T01:13:50;10.32;;;7.97;;
77495;SDS011;66600;48.378;9.948;2023-08-06T01:14:28;11.65;;;7.90;;
77495;SDS011;66600;48.378;9.948;2023-08-06T01:15:42;11.75;;;8.48;;
77495;SDS011;66600;48.378;9.948;2023-08-06T01:16:17;11.75;;;8.75;;
77495;SDS011;66600;48.378;9.948;2023-08-06T01:16:49;10.80;;;8.32;;
77495;SDS011;66600;48.378;9.948;2023-08-06T01:17:20;11.88;;;8.60;;
77495;SDS011;66600;48.378;9.948;2023-08-06T01:17:52;12.82;;;8.95;;
77495;SDS011;66600;48.378;9.948;2023-08-06T01:18:23;13.23;;;9.20;;
77495;SDS011;66600;48.378;9.948;2023-08-06T01:18:54;11.77;;;9.60;;
77495;SDS011;66600;48.378;9.948;2023-08-06T01:19:24;13.07;;;8.98;;
77495;SDS011;66600;48.378;9.948;2023-08-06T01:19:54;13.32;;;9.15;;
77495;SDS011;66600;48.378;9.948;2023-08-06T01:20:28;13.77;;;9.00;;
77495;SDS011;66600;48.378;9.948;2023-08-06T01:20:59;11.48;;;8.85;;
77495;SDS011;66600;48.378;9.948;2023-08-06T01:21:30;13.68;;;9.10;;
77495;SDS011;66600;48.378;9.948;2023-08-06T01:22:00;10.70;;;8.63;;
77495;SDS011;66600;48.378;9.948;2023-08-06T01:22:30;12.80;;;9.13;;
77495;SDS011;66600;48.378;9.948;2023-08-06T01:23:01;12.60;;;9.20;;
77495;SDS011;66600;48.378;9.948;2023-08-06T01:23:31;13.05;;;9.15;;
77495;SDS011;66600;48.378;9.948;2023-08-06T01:24:02;13.48;;;9.05;;
77495;SDS011;66600;48.378;9.948;2023-08-06T01:24:33;12.30;;;9.70;;
77495;SDS011;66600;48.378;9.948;2023-08-06T01:25:03;15.25;;;9.50;;
77495;SDS011;66600;48.378;9.948;2023-08-06T01:25:43;14.30;;;9.77;;
77495;SDS011;66600;48.378;9.948;2023-08-06T01:26:24;12.32;;;8.55;;
77495;SDS011;66600;48.378;9.948;2023-08-06T01:27:14;11.52;;;8.32;;
77495;SDS011;66600;48.378;9.948;2023-08-06T01:27:53;12.35;;;8.30;;
77495;SDS011;66600;48.378;9.948;2023-08-06T01:30:27;9.98;;;8.10;;
77495;SDS011;66600;48.378;9.948;2023-08-06T01:31:01;10.13;;;7.75;;
77495;SDS011;66600;48.378;9.948;2023-08-06T01:31:38;10.60;;;7.65;;
77495;SDS011;66600;48.378;9.948;2023-08-06T01:32:11;13.43;;;8.27;;
77495;SDS011;66600;48.378;9.948;2023-08-06T01:32:44;11.93;;;8.25;;
77495;SDS011;66600;48.378;9.948;2023-08-06T01:33:19;10.75;;;7.63;;
77495;SDS011;66600;48.378;9.948;2023-08-06T01:33:52;11.63;;;8.27;;
77495;SDS011;66600;48.378;9.948;2023-08-06T01:34:24;10.20;;;7.93;;
77495;SDS011;66600;48.378;9.948;2023-08-06T01:34:57;9.98;;;7.60;;
77495;SDS011;66600;48.378;9.948;2023-08-06T01:35:30;11.73;;;7.18;;
77495;SDS011;66600;48.378;9.948;2023-08-06T01:36:01;10.95;;;7.45;;
77495;SDS011;66600;48.378;9.948;2023-08-06T01:36:33;10.60;;;7.60;;
77495;SDS011;66600;48.378;9.948;2023-08-06T01:37:04;10.77;;;8.23;;
77495;SDS011;66600;48.378;9.948;2023-08-06T01:37:35;11.07;;;7.93;;
77495;SDS011;66600;48.378;9.948;2023-08-06T01:38:06;11.57;;;8.75;;
77495;SDS011;66600;48.378;9.948;2023-08-06T01:38:36;11.20;;;8.13;;
77495;SDS011;66600;48.378;9.948;2023-08-06T01:39:07;13.60;;;8.68;;
77495;SDS011;66600;48.378;9.948;2023-08-06T01:39:37;11.30;;;8.00;;
77495;SDS011;66600;48.378;9.948;2023-08-06T01:40:10;12.80;;;8.25;;
77495;SDS011;66600;48.378;9.948;2023-08-06T01:40:44;10.60;;;7.78;;
77495;SDS011;66600;48.378;9.948;2023-08-06T01:41:14;11.90;;;7.85;;
77495;SDS011;66600;48.378;9.948;2023-08-06T01:41:45;11.38;;;7.72;;
77495;SDS011;66600;48.378;9.948;2023-08-06T01:42:15;8.57;;;6.78;;
77495;SDS011;66600;48.378;9.948;2023-08-06T01:42:46;8.57;;;6.53;;
77495;SDS011;66600;48.378;9.948;2023-08-06T01:43:16;10.15;;;7.13;;
77495;SDS011;66600;48.378;9.948;2023-08-06T01:43:46;9.13;;;7.00;;
77495;SDS011;66600;48.378;9.948;2023-08-06T01:44:17;8.07;;;6.22;;
77495;SDS011;66600;48.378;9.948;2023-08-06T01:44:48;8.90;;;6.90;;
77495;SDS011;66600;48.378;9.948;2023-08-06T01:45:18;10.80;;;7.05;;
77495;SDS011;66600;48.378;9.948;2023-08-06T01:45:49;9.32;;;6.35;;
77495;SDS011;66600;48.378;9.948;2023-08-06T01:46:19;9.27;;;6.28;;
77495;SDS011;66600;48.378;9.948;2023-08-06T01:46:49;8.70;;;6.60;;
77495;SDS011;66600;48.378;9.948;2023-08-06T01:47:20;10.82;;;6.38;;
77495;SDS011;66600;48.378;9.948;2023-08-06T01:47:50;8.98;;;6.28;;
77495;SDS011;66600;48.378;9.948;2023-08-06T01:48:20;9.88;;;6.38;;
77495;SDS011;66600;48.378;9.948;2023-08-06T01:48:51;8.35;;;6.65;;
77495;SDS011;66600;48.378;9.948;2023-08-06T01:49:21;10.82;;;6.60;;
77495;SDS011;66600;48.378;9.948;2023-08-06T01:49:51;9.05;;;6.13;;
77495;SDS011;66600;48.378;9.948;2023-08-06T01:50:22;9.10;;;6.65;;
77495;SDS011;66600;48.378;9.948;2023-08-06T01:50:52;8.43;;;6.13;;
77495;SDS011;66600;48.378;9.948;2023-08-06T01:51:23;7.57;;;5.72;;
77495;SDS011;66600;48.378;9.948;2023-08-06T01:51:53;8.05;;;6.25;;
77495;SDS011;66600;48.378;9.948;2023-08-06T01:52:23;8.75;;;6.40;;
77495;SDS011;66600;48.378;9.948;2023-08-06T01:52:54;9.38;;;6.60;;
77495;SDS011;66600;48.378;9.948;2023-08-06T01:53:24;8.75;;;6.10;;
77495;SDS011;66600;48.378;9.948;2023-08-06T01:53:54;8.40;;;6.45;;
77495;SDS011;66600;48.378;9.948;2023-08-06T01:54:25;8.98;;;6.25;;
77495;SDS011;66600;48.378;9.948;2023-08-06T01:54:55;9.60;;;7.07;;
77495;SDS011;66600;48.378;9.948;2023-08-06T01:55:25;8.50;;;5.90;;
77495;SDS011;66600;48.378;9.948;2023-08-06T01:55:56;7.72;;;6.53;;
77495;SDS011;66600;48.378;9.948;2023-08-06T01:56:26;8.88;;;6.25;;
77495;SDS011;66600;48.378;9.948;2023-08-06T01:56:56;8.65;;;6.10;;
77495;SDS011;66600;48.378;9.948;2023-08-06T01:57:28;7.85;;;6.22;;
77495;SDS011;66600;48.378;9.948;2023-08-06T01:57:58;8.93;;;6.28;;
77495;SDS011;66600;48.378;9.948;2023-08-06T01:58:29;7.22;;;5.88;;
77495;SDS011;66600;48.378;9.948;2023-08-06T01:58:59;8.60;;;6.30;;
77495;SDS011;66600;48.378;9.948;2023-08-06T01:59:29;8.02;;;6.30;;
77495;SDS011;66600;48.378;9.948;2023-08-06T02:00:00;7.57;;;5.90;;
77495;SDS011;66600;48.378;9.948;2023-08-06T02:00:30;8.60;;;6.20;;
77495;SDS011;66600;48.378;9.948;2023-08-06T02:01:01;8.75;;;6.40;;
77495;SDS011;66600;48.378;9.948;2023-08-06T02:01:32;7.55;;;6.15;;
77495;SDS011;66600;48.378;9.948;2023-08-06T02:02:02;8.63;;;6.32;;
77495;SDS011;66600;48.378;9.948;2023-08-06T02:02:33;7.45;;;5.90;;
77495;SDS011;66600;48.378;9.948;2023-08-06T02:03:03;7.53;;;6.13;;
77495;SDS011;66600;48.378;9.948;2023-08-06T02:03:34;7.90;;;6.57;;
77495;SDS011;66600;48.378;9.948;2023-08-06T02:04:04;7.93;;;6.32;;
77495;SDS011;66600;48.378;9.948;2023-08-06T02:04:35;9.73;;;6.70;;
77495;SDS011;66600;48.378;9.948;2023-08-06T02:05:05;9.25;;;7.00;;
77495;SDS011;66600;48.378;9.948;2023-08-06T02:05:36;9.57;;;6.25;;
77495;SDS011;66600;48.378;9.948;2023-08-06T02:06:06;9.25;;;7.20;;
77495;SDS011;66600;48.378;9.948;2023-08-06T02:06:36;10.10;;;7.10;;
77495;SDS011;66600;48.378;9.948;2023-08-06T02:07:07;9.68;;;7.07;;
77495;SDS011;66600;48.378;9.948;2023-08-06T02:07:37;13.63;;;7.07;;
77495;SDS011;66600;48.378;9.948;2023-08-06T02:08:07;10.35;;;7.35;;
77495;SDS011;66600;48.378;9.948;2023-08-06T02:08:38;8.43;;;6.20;;
77495;SDS011;66600;48.378;9.948;2023-08-06T02:09:09;9.45;;;6.65;;
77495;SDS011;66600;48.378;9.948;2023-08-06T02:09:40;9.23;;;6.50;;
77495;SDS011;66600;48.378;9.948;2023-08-06T02:10:10;7.70;;;6.50;;
77495;SDS011;66600;48.378;9.948;2023-08-06T02:10:40;8.40;;;6.60;;
77495;SDS011;66600;48.378;9.948;2023-08-06T02:11:11;8.82;;;6.57;;
77495;SDS011;66600;48.378;9.948;2023-08-06T02:11:42;9.35;;;6.50;;
77495;SDS011;66600;48.378;9.948;2023-08-06T02:12:12;10.93;;;6.82;;
77495;SDS011;66600;48.378;9.948;2023-08-06T02:12:42;7.55;;;6.20;;
77495;SDS011;66600;48.378;9.948;2023-08-06T02:13:13;8.15;;;6.15;;
77495;SDS011;66600;48.378;9.948;2023-08-06T02:13:43;9.27;;;6.38;;
77495;SDS011;66600;48.378;9.948;2023-08-06T02:14:13;8.10;;;6.70;;
77495;SDS011;66600;48.378;9.948;2023-08-06T02:14:44;9.13;;;6.60;;
77495;SDS011;66600;48.378;9.948;2023-08-06T02:15:14;9.05;;;6.45;;
77495;SDS011;66600;48.378;9.948;2023-08-06T02:15:45;10.23;;;6.75;;
77495;SDS011;66600;48.378;9.948;2023-08-06T02:16:18;10.10;;;6.18;;
77495;SDS011;66600;48.378;9.948;2023-08-06T02:16:49;10.07;;;5.95;;
77495;SDS011;66600;48.378;9.948;2023-08-06T02:17:20;9.55;;;6.32;;
77495;SDS011;66600;48.378;9.948;2023-08-06T02:17:50;7.97;;;6.35;;
77495;SDS011;66600;48.378;9.948;2023-08-06T02:18:20;8.82;;;6.57;;
77495;SDS011;66600;48.378;9.948;2023-08-06T02:18:51;9.35;;;6.20;;
77495;SDS011;66600;48.378;9.948;2023-08-06T02:19:21;9.30;;;6.50;;
77495;SDS011;66600;48.378;9.948;2023-08-06T02:19:52;8.90;;;6.85;;
77495;SDS011;66600;48.378;9.948;2023-08-06T02:20:22;9.60;;;6.32;;
77495;SDS011;66600;48.378;9.948;2023-08-06T02:20:56;7.88;;;6.55;;
77495;SDS011;66600;48.378;9.948;2023-08-06T02:21:27;9.02;;;6.45;;
77495;SDS011;66600;48.378;9.948;2023-08-06T02:21:57;7.47;;;6.30;;
77495;SDS011;66600;48.378;9.948;2023-08-06T02:22:28;8.55;;;6.30;;
77495;SDS011;66600;48.378;9.948;2023-08-06T02:22:58;9.35;;;6.15;;
77495;SDS011;66600;48.378;9.948;2023-08-06T02:23:28;10.93;;;6.70;;
77495;SDS011;66600;48.378;9.948;2023-08-06T02:23:59;7.68;;;5.55;;
77495;SDS011;66600;48.378;9.948;2023-08-06T02:24:29;9.48;;;6.53;;
77495;SDS011;66600;48.378;9.948;2023-08-06T02:25:00;8.20;;;6.00;;
77495;SDS011;66600;48.378;9.948;2023-08-06T02:25:30;8.75;;;6.30;;
77495;SDS011;66600;48.378;9.948;2023-08-06T02:26:01;9.35;;;6.43;;
77495;SDS011;66600;48.378;9.948;2023-08-06T02:26:33;7.88;;;6.05;;
77495;SDS011;66600;48.378;9.948;2023-08-06T02:27:04;9.07;;;6.63;;
77495;SDS011;66600;48.378;9.948;2023-08-06T02:27:34;9.13;;;6.50;;
77495;SDS011;66600;48.378;9.948;2023-08-06T02:28:04;9.85;;;6.88;;
77495;SDS011;66600;48.378;9.948;2023-08-06T02:28:35;8.13;;;6.32;;
77495;SDS011;66600;48.378;9.948;2023-08-06T02:29:05;8.63;;;6.22;;
77495;SDS011;66600;48.378;9.948;2023-08-06T02:29:36;8.73;;;6.53;;
77495;SDS011;66600;48.378;9.948;2023-08-06T02:30:06;8.20;;;6.55;;
77495;SDS011;66600;48.378;9.948;2023-08-06T02:30:37;8.55;;;6.18;;
77495;SDS011;66600;48.378;9.948;2023-08-06T02:31:07;8.43;;;6.20;;
77495;SDS011;66600;48.378;9.948;2023-08-06T02:31:38;8.73;;;6.38;;
77495;SDS011;66600;48.378;9.948;2023-08-06T02:32:08;9.07;;;5.75;;
77495;SDS011;66600;48.378;9.948;2023-08-06T02:32:38;8.90;;;6.13;;
77495;SDS011;66600;48.378;9.948;2023-08-06T02:33:09;8.57;;;6.40;;
77495;SDS011;66600;48.378;9.948;2023-08-06T02:33:39;8.77;;;6.72;;
77495;SDS011;66600;48.378;9.948;2023-08-06T02:34:09;9.20;;;6.78;;
77495;SDS011;66600;48.378;9.948;2023-08-06T02:34:40;7.93;;;6.45;;
77495;SDS011;66600;48.378;9.948;2023-08-06T02:35:10;9.23;;;6.00;;
77495;SDS011;66600;48.378;9.948;2023-08-06T02:35:40;8.35;;;6.30;;
77495;SDS011;66600;48.378;9.948;2023-08-06T02:36:11;8.60;;;6.20;;
77495;SDS011;66600;48.378;9.948;2023-08-06T02:36:41;8.90;;;6.03;;
77495;SDS011;66600;48.378;9.948;2023-08-06T02:37:12;8.30;;;6.57;;
77495;SDS011;66600;48.378;9.948;2023-08-06T02:37:42;7.00;;;5.60;;
77495;SDS011;66600;48.378;9.948;2023-08-06T02:38:12;6.80;;;5.68;;
77495;SDS011;66600;48.378;9.948;2023-08-06T02:38:43;8.77;;;6.10;;
77495;SDS011;66600;48.378;9.948;2023-08-06T02:39:13;7.80;;;6.10;;
77495;SDS011;66600;48.378;9.948;2023-08-06T02:39:43;9.52;;;6.32;;
77495;SDS011;66600;48.378;9.948;2023-08-06T02:40:14;7.20;;;5.57;;
77495;SDS011;66600;48.378;9.948;2023-08-06T02:40:44;6.63;;;5.50;;
77495;SDS011;66600;48.378;9.948;2023-08-06T02:41:15;7.95;;;6.05;;
77495;SDS011;66600;48.378;9.948;2023-08-06T02:41:46;7.43;;;5.95;;
77495;SDS011;66600;48.378;9.948;2023-08-06T02:42:16;7.53;;;5.40;;
77495;SDS011;66600;48.378;9.948;2023-08-06T02:42:46;9.20;;;6.40;;
77495;SDS011;66600;48.378;9.948;2023-08-06T02:43:17;7.32;;;5.97;;
77495;SDS011;66600;48.378;9.948;2023-08-06T02:43:47;8.93;;;6.10;;
77495;SDS011;66600;48.378;9.948;2023-08-06T02:44:17;9.05;;;6.20;;
77495;SDS011;66600;48.378;9.948;2023-08-06T02:44:48;9.70;;;6.40;;
77495;SDS011;66600;48.378;9.948;2023-08-06T02:45:18;11.35;;;6.25;;
77495;SDS011;66600;48.378;9.948;2023-08-06T02:45:49;7.50;;;6.15;;
77495;SDS011;66600;48.378;9.948;2023-08-06T02:46:19;9.07;;;6.43;;
77495;SDS011;66600;48.378;9.948;2023-08-06T02:46:49;8.13;;;5.72;;
77495;SDS011;66600;48.378;9.948;2023-08-06T02:47:20;8.23;;;6.00;;
77495;SDS011;66600;48.378;9.948;2023-08-06T02:47:50;9.77;;;6.40;;
77495;SDS011;66600;48.378;9.948;2023-08-06T02:48:21;8.35;;;5.90;;
77495;SDS011;66600;48.378;9.948;2023-08-06T02:48:51;7.65;;;6.07;;
77495;SDS011;66600;48.378;9.948;2023-08-06T02:49:21;8.82;;;6.30;;
77495;SDS011;66600;48.378;9.948;2023-08-06T02:49:52;8.40;;;6.30;;
77495;SDS011;66600;48.378;9.948;2023-08-06T02:50:22;7.70;;;5.40;;
77495;SDS011;66600;48.378;9.948;2023-08-06T02:50:52;7.65;;;5.50;;
77495;SDS011;66600;48.378;9.948;2023-08-06T02:51:23;10.93;;;6.10;;
77495;SDS011;66600;48.378;9.948;2023-08-06T02:51:53;8.25;;;6.20;;
77495;SDS011;66600;48.378;9.948;2023-08-06T02:52:24;12.75;;;6.47;;
77495;SDS011;66600;48.378;9.948;2023-08-06T02:52:54;9.57;;;6.30;;
77495;SDS011;66600;48.378;9.948;2023-08-06T02:53:24;9.13;;;6.38;;
77495;SDS011;66600;48.378;9.948;2023-08-06T02:53:55;8.55;;;6.20;;
77495;SDS011;66600;48.378;9.948;2023-08-06T02:54:25;8.02;;;6.40;;
77495;SDS011;66600;48.378;9.948;2023-08-06T02:54:55;10.93;;;6.65;;
77495;SDS011;66600;48.378;9.948;2023-08-06T02:55:26;8.80;;;6.47;;
77495;SDS011;66600;48.378;9.948;2023-08-06T02:55:56;8.20;;;6.50;;
77495;SDS011;66600;48.378;9.948;2023-08-06T02:56:27;8.23;;;6.45;;
77495;SDS011;66600;48.378;9.948;2023-08-06T02:56:57;9.38;;;5.88;;
77495;SDS011;66600;48.378;9.948;2023-08-06T02:57:27;8.93;;;6.22;;
77495;SDS011;66600;48.378;9.948;2023-08-06T02:57:58;8.32;;;6.30;;
77495;SDS011;66600;48.378;9.948;2023-08-06T02:58:28;10.18;;;5.82;;
77495;SDS011;66600;48.378;9.948;2023-08-06T02:58:58;9.15;;;6.60;;
77495;SDS011;66600;48.378;9.948;2023-08-06T02:59:30;8.50;;;6.20;;
77495;SDS011;66600;48.378;9.948;2023-08-06T03:00:01;7.85;;;6.35;;
77495;SDS011;66600;48.378;9.948;2023-08-06T03:00:31;9.18;;;6.07;;
77495;SDS011;66600;48.378;9.948;2023-08-06T03:01:05;9.25;;;6.43;;
77495;SDS011;66600;48.378;9.948;2023-08-06T03:01:37;7.88;;;5.82;;
77495;SDS011;66600;48.378;9.948;2023-08-06T03:02:07;8.35;;;6.28;;
77495;SDS011;66600;48.378;9.948;2023-08-06T03:02:37;10.23;;;5.97;;
77495;SDS011;66600;48.378;9.948;2023-08-06T03:03:08;10.43;;;6.70;;
77495;SDS011;66600;48.378;9.948;2023-08-06T03:03:38;7.20;;;6.13;;
77495;SDS011;66600;48.378;9.948;2023-08-06T03:04:08;7.90;;;5.57;;
77495;SDS011;66600;48.378;9.948;2023-08-06T03:04:39;9.38;;;6.22;;
77495;SDS011;66600;48.378;9.948;2023-08-06T03:05:10;8.18;;;6.28;;
77495;SDS011;66600;48.378;9.948;2023-08-06T03:05:40;9.48;;;6.25;;
77495;SDS011;66600;48.378;9.948;2023-08-06T03:06:10;7.80;;;6.38;;
77495;SDS011;66600;48.378;9.948;2023-08-06T03:06:41;7.40;;;6.32;;
77495;SDS011;66600;48.378;9.948;2023-08-06T03:07:11;13.57;;;6.75;;
77495;SDS011;66600;48.378;9.948;2023-08-06T03:07:42;7.95;;;5.95;;
77495;SDS011;66600;48.378;9.948;2023-08-06T03:08:12;9.85;;;6.25;;
77495;SDS011;66600;48.378;9.948;2023-08-06T03:08:42;8.43;;;6.30;;
77495;SDS011;66600;48.378;9.948;2023-08-06T03:09:13;9.05;;;6.43;;
77495;SDS011;66600;48.378;9.948;2023-08-06T03:09:44;8.20;;;6.50;;
77495;SDS011;66600;48.378;9.948;2023-08-06T03:10:14;10.02;;;6.72;;
77495;SDS011;66600;48.378;9.948;2023-08-06T03:10:44;9.52;;;6.15;;
77495;SDS011;66600;48.378;9.948;2023-08-06T03:11:16;7.43;;;6.40;;